CYFBCYYQ

Guest
Details From CYFB - Iqaluit
To CYYQ - CHURCHILL
Flight Number -
Tags generated
Created
Modified
Stats Distance 798 nm / 1,477 km
Max Altitude 28,000 ft / 8,534 m
Waypoints 5
Social Downloads 3
Likes 0
Share VATSIM

Download

Looking for another format? Having issues loading an existing format? Contact us
Advertisement - Login to hide

Notes

Basic altitude profile: - Ascent Rate: 1000ft/min - Ascent Speed: 200kts - Cruise Altitude: 25000ft - Cruise Speed: 230kts - Descent Rate: 1000ft/min - Descent Speed: 80kts

Route

CYFB YFB N554C YYQ CYYQ

ID Type Via Altitude Latitude Longitude Leg Dist Tot Dist Heading (true) Name
O CYFB APT - 0 ft / 0 m 63.75657˚ -68.55606˚ - 0 nm - Iqaluit
YFB VOR - 600 ft / 183 m 63.74167˚ -68.47333˚ 2 nm 2 nm 112° / 112° FROBAY VOR
BODRA FIX N554C (AWY-HI) 28,000 ft / 8,534 m 62.28278˚ -80.00000˚ 325 nm 328 nm 260° / 249° -
YYQ VOR N554C (AWY-HI) 28,000 ft / 8,534 m 58.74175˚ -94.13531˚ 467 nm 795 nm 249° / 237° CHURCHILL VOR-DME
O CYYQ APT - 0 ft / 0 m 58.74397˚ -94.06386˚ 2 nm 797 nm 87° / 87° CHURCHILL

Altitude Profile

Advertisement - Login to hide

Weather


0- 5 10 15 20 25 30 35+ Temperature / ° C

Clouds and Precipitation
Forecast for 2018-05-21 12:00 UTC. Updated 2 hours ago

Ground ~20,000 ft ~40,000 ft Winds

CYFB

Details ICAO CYFB (YFB)
Name Iqaluit
Region Canada
Timezone America/Iqaluit (UTC-4.0)
Stats Elevation 110 ft / 34 m (AMSL)
Location 63.756565° -68.556058°
Runways 1
Magnetic Variation 27.375° W

METAR

CYFB 211300Z 36010KT 30SM BKN042 M04/M08 A2976 RMK SC7 SLP082

Decode

TAF

TAF CYFB 211138Z 2112/2212 VRB03KT P6SM BKN030 TEMPO 2112/2212 SCT030 BECMG 2115/2117 33010KT RMK NXT FCST BY 211800Z

Decode

Departure Runways

ID Width Length Bearing (true) Bearing (mag) Surface Threshold Offset Overrun Length
17 200 ft / 61 m 8,605 ft / 2,623 m 135.58° 162.96° Asphalt 0 ft / 0 m 210 ft / 64 m
35 200 ft / 61 m 8,605 ft / 2,623 m 315.62° 343.00° Asphalt 0 ft / 0 m 243 ft / 74 m

CYYQ

Details ICAO CYYQ (YYQ)
Name CHURCHILL
Region Canada
Timezone America/Winnipeg (UTC-5.0)
Stats Elevation 94 ft / 29 m (AMSL)
Location 58.743971° -94.063864°
Runways 2
Magnetic Variation 2.066° W

METAR

CYYQ 211300Z 03005KT 350V050 15SM OVC016 M05/M08 A3015 RMK SC8 SLP214

Decode

TAF

TAF CYYQ 211138Z 2112/2212 VRB03KT P6SM BKN015 TEMPO 2112/2118 SCT015 BECMG 2113/2115 03010KT FM211800 03012KT P6SM SCT015 TEMPO 2118/2205 BKN015 FM220500 03008KT P6SM BKN015 BECMG 2210/2212 07008KT RMK NXT FCST BY 211800Z

Decode

Destination Runways

ID Width Length Bearing (true) Bearing (mag) Surface Threshold Offset Overrun Length
07 100 ft / 30 m 3,988 ft / 1,215 m 70.97° 73.04° Gravel 0 ft / 0 m 0 ft / 0 m
15 160 ft / 49 m 9,178 ft / 2,797 m 152.64° 154.71° Asphalt 0 ft / 0 m 0 ft / 0 m
25 100 ft / 30 m 3,988 ft / 1,215 m 250.99° 253.06° Gravel 0 ft / 0 m 0 ft / 0 m
33 160 ft / 49 m 9,178 ft / 2,797 m 332.66° 334.73° Asphalt 0 ft / 0 m 0 ft / 0 m

Popular Alternatives